Time;durP1;ratioP1;P1;durP2;ratioP2;P2;SDS_P1;SDS_P2;PMS_P1;PMS_P2;Temp;Humidity;BMP_temperature;BMP_pressure;BME280_temperature;BME280_humidity;BME280_pressure;Samples;Min_cycle;Max_cycle;Signal;HPM_P1;HPM_P2
2021/06/01 00:02:17;;;;;;;1.58;1.30;;;22.10;40.60;;;;;;5048294;28;20036;-44
2021/06/01 00:04:43;;;;;;;1.77;1.40;;;22.10;40.60;;;;;;5051408;28;20029;-43
2021/06/01 00:07:08;;;;;;;1.50;1.13;;;22.10;41.00;;;;;;5045192;28;20032;-42
2021/06/01 00:09:34;;;;;;;2.35;1.55;;;22.00;40.50;;;;;;5034710;28;20025;-44
2021/06/01 00:12:00;;;;;;;1.60;1.40;;;22.10;41.30;;;;;;5039608;28;20029;-45
2021/06/01 00:14:26;;;;;;;2.22;1.23;;;22.00;40.50;;;;;;5045044;28;20052;-42
2021/06/01 00:16:53;;;;;;;2.47;1.20;;;22.00;40.50;;;;;;5053118;28;20373;-43
2021/06/01 00:19:18;;;;;;;1.52;1.33;;;22.00;40.50;;;;;;5036377;28;20033;-48
2021/06/01 00:21:45;;;;;;;1.95;1.15;;;22.00;40.50;;;;;;5034683;28;20040;-44
2021/06/01 00:24:11;;;;;;;1.63;1.17;;;22.00;40.50;;;;;;5044468;28;20029;-44
2021/06/01 00:26:38;;;;;;;2.13;1.10;;;22.00;40.50;;;;;;5037284;28;20060;-43
2021/06/01 00:29:05;;;;;;;1.33;1.13;;;22.00;40.50;;;;;;5053075;28;20037;-42
2021/06/01 00:31:31;;;;;;;2.63;1.60;;;22.00;40.40;;;;;;5043337;28;20026;-44
2021/06/01 00:33:57;;;;;;;1.77;1.10;;;22.00;40.40;;;;;;5034901;28;20647;-44
2021/06/01 00:36:23;;;;;;;2.08;1.30;;;22.00;40.50;;;;;;5033751;28;20033;-44
2021/06/01 00:44:51;;;;;;;1.70;1.30;;;22.00;40.40;;;;;;5257796;22;20848;-42
2021/06/01 00:47:17;;;;;;;2.47;1.38;;;22.00;40.50;;;;;;5025655;28;20041;-44
2021/06/01 00:49:42;;;;;;;1.67;1.33;;;22.00;40.40;;;;;;5034229;28;20069;-48
2021/06/01 00:52:10;;;;;;;1.85;1.35;;;22.00;40.40;;;;;;5032859;28;20124;-44
2021/06/01 00:54:36;;;;;;;1.50;1.08;;;22.00;40.40;;;;;;5033217;28;20034;-45
2021/06/01 00:57:02;;;;;;;1.25;1.15;;;22.00;40.40;;;;;;5032112;28;20029;-46
2021/06/01 00:59:28;;;;;;;2.15;1.23;;;22.00;40.50;;;;;;5032434;28;20033;-42
2021/06/01 01:01:53;;;;;;;1.70;1.30;;;22.00;40.40;;;;;;5032524;28;20064;-46
2021/06/01 01:04:19;;;;;;;2.40;1.42;;;21.90;40.50;;;;;;5033054;28;20030;-42
2021/06/01 01:07:03;;;;;;;1.83;1.63;;;22.00;40.40;;;;;;5032888;28;20462;-45
2021/06/01 01:50:08;;;;;;;1.50;1.40;;;21.90;40.30;;;;;;5235612;22;20061;-45
2021/06/01 01:52:36;;;;;;;2.53;1.13;;;21.90;40.30;;;;;;5012759;28;20111;-46
2021/06/01 01:55:03;;;;;;;2.38;1.50;;;21.90;40.30;;;;;;5012948;28;20022;-42
2021/06/01 01:57:30;;;;;;;1.80;1.20;;;21.90;40.30;;;;;;5011306;28;20387;-46
2021/06/01 01:59:55;;;;;;;1.60;1.38;;;21.90;40.30;;;;;;5011946;28;20069;-44
2021/06/01 02:02:21;;;;;;;1.63;1.20;;;21.90;40.30;;;;;;5011295;28;20065;-42
2021/06/01 02:04:49;;;;;;;1.73;1.30;;;21.90;40.20;;;;;;5012274;28;20038;-42
2021/06/01 02:07:14;;;;;;;1.40;1.10;;;21.90;40.20;;;;;;5011638;28;20034;-42
2021/06/01 02:09:40;;;;;;;1.45;1.30;;;21.90;40.30;;;;;;5002562;28;20030;-42
2021/06/01 02:12:06;;;;;;;1.73;1.30;;;21.90;40.50;;;;;;5009699;28;20037;-42
2021/06/01 02:14:32;;;;;;;2.22;1.27;;;21.90;40.50;;;;;;5005873;28;20072;-44
2021/06/01 02:16:58;;;;;;;4.10;1.40;;;21.90;40.80;;;;;;5000769;28;20030;-42
2021/06/01 02:19:24;;;;;;;3.92;1.30;;;21.90;40.70;;;;;;5005357;28;20061;-42
2021/06/01 02:24:33;;;;;;;1.40;1.10;;;21.90;40.70;;;;;;5002630;28;20053;-42
2021/06/01 02:27:21;;;;;;;2.38;0.85;;;21.90;40.70;;;;;;5005582;28;20025;-43
2021/06/01 02:30:02;;;;;;;2.28;1.20;;;21.90;40.80;;;;;;5010561;28;20038;-47
2021/06/01 02:32:44;;;;;;;1.55;1.10;;;21.90;40.80;;;;;;5008442;28;20076;-45
2021/06/01 02:35:16;;;;;;;1.83;1.65;;;21.90;40.80;;;;;;5006926;28;20042;-41
2021/06/01 02:37:45;;;;;;;1.98;1.10;;;21.90;40.80;;;;;;4997964;28;20415;-48
2021/06/01 02:40:13;;;;;;;2.80;1.17;;;21.90;40.80;;;;;;5009447;28;20038;-43
2021/06/01 02:42:41;;;;;;;3.70;1.08;;;21.90;40.70;;;;;;5002838;28;20033;-42
2021/06/01 02:45:08;;;;;;;1.75;1.63;;;21.80;40.60;;;;;;5005685;28;20040;-43
2021/06/01 02:47:34;;;;;;;1.65;1.10;;;21.90;40.70;;;;;;5001313;28;20046;-45
2021/06/01 02:50:05;;;;;;;1.83;1.27;;;21.80;40.60;;;;;;5000844;28;20066;-43
2021/06/01 02:52:33;;;;;;;1.90;1.10;;;21.80;40.60;;;;;;5002039;28;20472;-42
2021/06/01 02:55:00;;;;;;;1.58;1.17;;;21.80;40.60;;;;;;5008993;28;20042;-43
2021/06/01 02:57:26;;;;;;;1.40;1.10;;;21.80;40.60;;;;;;5003630;28;20049;-44
2021/06/01 02:59:52;;;;;;;2.22;1.45;;;21.80;40.70;;;;;;5003774;28;20045;-45
2021/06/01 03:02:18;;;;;;;1.40;1.20;;;21.80;40.60;;;;;;5001442;28;20340;-43
2021/06/01 03:04:53;;;;;;;1.63;1.33;;;21.80;41.20;;;;;;5010390;28;20026;-45
2021/06/01 03:07:20;;;;;;;1.60;1.40;;;21.80;40.60;;;;;;5009386;28;20037;-44
2021/06/01 03:09:46;;;;;;;1.83;1.38;;;21.80;40.60;;;;;;5000345;28;20573;-47
2021/06/01 03:14:56;;;;;;;1.40;1.10;;;21.80;40.50;;;;;;5009440;28;20570;-43
2021/06/01 03:17:22;;;;;;;1.20;1.10;;;21.80;40.60;;;;;;5001912;28;20034;-47
2021/06/01 03:19:47;;;;;;;4.20;1.42;;;21.80;40.60;;;;;;5009019;28;20120;-43
2021/06/01 03:22:13;;;;;;;1.65;1.33;;;21.80;40.60;;;;;;5007414;28;20037;-45
2021/06/01 03:24:39;;;;;;;2.22;1.10;;;21.80;40.60;;;;;;5007133;28;20075;-46
2021/06/01 03:27:05;;;;;;;1.13;1.02;;;21.80;40.60;;;;;;5004012;28;20034;-46
2021/06/01 03:29:31;;;;;;;2.22;1.10;;;21.80;40.60;;;;;;5002182;28;20061;-44
2021/06/01 03:31:56;;;;;;;1.10;1.00;;;21.80;40.60;;;;;;5004322;28;20104;-43
2021/06/01 03:34:22;;;;;;;1.35;1.13;;;21.80;40.50;;;;;;5005684;28;20109;-43
2021/06/01 03:36:48;;;;;;;1.48;1.10;;;21.80;40.60;;;;;;5005050;28;20031;-43
2021/06/01 03:39:15;;;;;;;1.60;1.42;;;21.80;40.60;;;;;;5006387;28;20137;-44
2021/06/01 03:41:41;;;;;;;1.40;1.10;;;21.80;40.50;;;;;;5001220;28;20523;-48
2021/06/01 03:44:06;;;;;;;1.48;1.20;;;21.80;40.60;;;;;;5033310;28;20141;-48
2021/06/01 03:46:32;;;;;;;1.30;1.20;;;21.80;40.60;;;;;;5005343;28;20052;-47
2021/06/01 03:48:58;;;;;;;1.50;1.00;;;21.80;40.60;;;;;;5006560;28;20030;-45
2021/06/01 03:51:23;;;;;;;1.40;1.10;;;21.80;40.70;;;;;;5009356;28;20054;-45
2021/06/01 03:53:49;;;;;;;2.47;1.17;;;21.80;40.60;;;;;;5011492;28;20447;-46
2021/06/01 03:56:16;;;;;;;1.77;1.27;;;21.80;40.50;;;;;;5010726;28;20130;-44
2021/06/01 03:58:41;;;;;;;1.65;1.50;;;21.80;40.50;;;;;;5010578;28;20038;-43
2021/06/01 04:01:07;;;;;;;2.15;1.13;;;21.80;40.50;;;;;;5010728;28;20530;-46
2021/06/01 04:03:39;;;;;;;1.30;1.20;;;21.80;40.50;;;;;;5009376;28;20060;-46
2021/06/01 04:06:05;;;;;;;1.42;1.13;;;21.80;40.50;;;;;;5015913;28;20176;-44
2021/06/01 04:08:30;;;;;;;1.25;1.10;;;21.80;40.50;;;;;;5013204;28;20463;-44
2021/06/01 04:10:56;;;;;;;1.75;1.40;;;21.80;40.50;;;;;;5014126;28;20483;-45
2021/06/01 04:13:21;;;;;;;1.25;1.08;;;21.80;40.50;;;;;;5013531;28;20383;-46
2021/06/01 04:15:47;;;;;;;1.60;1.20;;;21.80;40.50;;;;;;5014168;28;20033;-45
2021/06/01 04:18:13;;;;;;;1.63;1.40;;;21.80;40.50;;;;;;5014652;28;20033;-44
2021/06/01 04:20:38;;;;;;;2.25;1.02;;;21.80;40.50;;;;;;5012614;28;20050;-46
2021/06/01 04:23:04;;;;;;;2.55;1.35;;;21.80;40.60;;;;;;5014554;28;20026;-48
2021/06/01 04:25:30;;;;;;;2.65;1.30;;;21.80;40.60;;;;;;5013168;28;20495;-48
2021/06/01 04:27:55;;;;;;;1.63;1.08;;;21.80;40.60;;;;;;5014335;28;20088;-43
2021/06/01 04:30:21;;;;;;;1.98;1.23;;;21.70;40.40;;;;;;5013436;28;20026;-43
2021/06/01 04:32:47;;;;;;;1.70;1.20;;;21.70;40.50;;;;;;5013664;28;20111;-45
2021/06/01 04:35:13;;;;;;;2.63;1.10;;;21.80;40.60;;;;;;5014129;28;20025;-43
2021/06/01 04:37:39;;;;;;;2.90;1.20;;;21.80;40.70;;;;;;5013375;28;20038;-44
2021/06/01 04:40:06;;;;;;;2.47;1.20;;;21.80;40.60;;;;;;5013816;28;20037;-43
2021/06/01 04:42:31;;;;;;;1.35;1.13;;;21.80;40.60;;;;;;5013017;28;20483;-45
2021/06/01 04:44:57;;;;;;;1.70;1.23;;;21.80;40.60;;;;;;5013851;28;20038;-45
2021/06/01 04:47:23;;;;;;;1.40;1.30;;;21.80;40.60;;;;;;5012996;28;20026;-44
2021/06/01 04:49:49;;;;;;;1.85;1.17;;;21.80;40.60;;;;;;5013128;28;20050;-44
2021/06/01 04:52:15;;;;;;;1.48;1.30;;;21.80;40.60;;;;;;5007140;28;20456;-45
2021/06/01 04:54:41;;;;;;;1.23;1.00;;;21.80;40.60;;;;;;5013039;28;20036;-46
2021/06/01 04:57:07;;;;;;;2.45;1.27;;;21.70;40.60;;;;;;5013542;28;20156;-48
2021/06/01 04:59:35;;;;;;;1.63;1.42;;;21.70;40.50;;;;;;5012654;28;20076;-47
2021/06/01 05:02:00;;;;;;;1.85;1.40;;;21.70;40.50;;;;;;5012823;28;20460;-45
2021/06/01 05:04:26;;;;;;;1.35;1.00;;;21.80;40.70;;;;;;5012666;28;20037;-46
2021/06/01 05:06:56;;;;;;;4.43;1.80;;;21.80;40.70;;;;;;5007087;28;20033;-43
2021/06/01 05:09:25;;;;;;;1.40;1.30;;;21.80;40.70;;;;;;5005695;28;20111;-46
2021/06/01 05:11:51;;;;;;;2.35;1.52;;;21.80;40.80;;;;;;5013276;28;20420;-44
2021/06/01 05:14:17;;;;;;;2.08;1.17;;;21.70;40.70;;;;;;5012679;28;20157;-44
2021/06/01 05:16:42;;;;;;;2.53;1.35;;;21.70;40.70;;;;;;5012855;28;20022;-46
2021/06/01 05:19:09;;;;;;;2.40;1.70;;;21.80;40.80;;;;;;5012921;28;20116;-43
2021/06/01 05:21:34;;;;;;;2.25;1.50;;;21.80;40.80;;;;;;5027113;28;20030;-47
2021/06/01 05:24:00;;;;;;;1.85;1.35;;;21.70;40.80;;;;;;5012856;28;20033;-43
2021/06/01 05:26:26;;;;;;;2.53;1.38;;;21.70;40.80;;;;;;5012776;28;20049;-49
2021/06/01 05:28:52;;;;;;;1.90;1.52;;;21.70;40.90;;;;;;5028201;28;20034;-46
2021/06/01 05:31:30;;;;;;;2.03;1.30;;;21.80;40.90;;;;;;5012642;28;20439;-46
2021/06/01 05:34:06;;;;;;;2.28;1.42;;;21.70;40.90;;;;;;5012857;28;20092;-46
2021/06/01 05:36:32;;;;;;;3.20;1.75;;;21.70;41.00;;;;;;5005331;28;20109;-43
2021/06/01 05:38:58;;;;;;;3.00;1.80;;;21.80;41.10;;;;;;5012648;28;20448;-45
2021/06/01 05:41:23;;;;;;;1.90;1.50;;;21.80;41.00;;;;;;5012357;28;20037;-46
2021/06/01 05:43:49;;;;;;;4.07;2.00;;;21.80;41.00;;;;;;5012009;28;20029;-42
2021/06/01 05:46:14;;;;;;;2.50;1.80;;;21.80;41.00;;;;;;5012719;28;20026;-49
2021/06/01 05:48:40;;;;;;;3.78;1.70;;;21.70;41.10;;;;;;5011918;28;20026;-43
2021/06/01 05:51:06;;;;;;;2.90;1.80;;;21.70;41.10;;;;;;5011749;28;20053;-42
2021/06/01 05:53:32;;;;;;;2.88;1.40;;;21.80;41.40;;;;;;5011867;28;20365;-45
2021/06/01 05:55:58;;;;;;;3.25;1.58;;;21.80;42.20;;;;;;5012602;28;20037;-43
2021/06/01 05:58:24;;;;;;;4.80;1.90;;;21.80;42.00;;;;;;5011574;28;20438;-46
2021/06/01 06:00:50;;;;;;;9.70;1.60;;;21.80;42.30;;;;;;5012568;28;20033;-43
2021/06/01 06:03:17;;;;;;;3.33;1.38;;;21.80;42.60;;;;;;5012265;28;20120;-42
2021/06/01 06:05:44;;;;;;;5.85;1.80;;;21.90;43.30;;;;;;5011746;28;20030;-41
2021/06/01 06:08:13;;;;;;;4.03;1.50;;;21.90;43.80;;;;;;5011806;28;20113;-44
2021/06/01 06:10:40;;;;;;;3.42;1.50;;;21.90;43.60;;;;;;5011475;28;20030;-45
2021/06/01 06:13:06;;;;;;;3.65;1.70;;;21.90;43.90;;;;;;5012062;28;20464;-43
2021/06/01 06:15:32;;;;;;;3.13;1.40;;;21.90;44.00;;;;;;5011287;28;20041;-37
2021/06/01 06:18:06;;;;;;;5.75;2.28;;;21.90;44.10;;;;;;5012331;28;20052;-38
2021/06/01 06:20:34;;;;;;;7.65;2.65;;;21.90;43.80;;;;;;5010827;28;20046;-38
2021/06/01 06:23:00;;;;;;;7.05;2.20;;;22.00;43.80;;;;;;5012243;28;20379;-37
2021/06/01 06:25:26;;;;;;;5.15;1.92;;;21.90;44.20;;;;;;5011507;28;20042;-38
2021/06/01 06:27:52;;;;;;;7.28;2.03;;;21.90;44.40;;;;;;5011966;28;20025;-38
2021/06/01 06:30:18;;;;;;;12.43;4.50;;;21.90;44.80;;;;;;5011300;28;20057;-37
2021/06/01 06:32:45;;;;;;;11.52;5.20;;;21.60;41.60;;;;;;5010016;28;20096;-37
2021/06/01 06:35:12;;;;;;;9.77;6.20;;;20.90;42.30;;;;;;5012005;28;20049;-37
2021/06/01 06:37:38;;;;;;;11.93;5.75;;;20.40;43.10;;;;;;5026051;28;20057;-38
2021/06/01 06:40:06;;;;;;;13.50;5.60;;;20.10;43.60;;;;;;5011800;28;20041;-37
2021/06/01 06:42:33;;;;;;;11.93;5.43;;;20.10;43.70;;;;;;5010880;28;20382;-37
2021/06/01 06:44:59;;;;;;;12.25;5.47;;;20.00;43.70;;;;;;5012080;28;20041;-37
2021/06/01 06:47:40;;;;;;;10.20;6.05;;;20.00;43.40;;;;;;5010592;28;20120;-38
2021/06/01 06:50:10;;;;;;;10.55;5.43;;;20.00;43.50;;;;;;5011368;28;20391;-37
2021/06/01 06:52:36;;;;;;;8.20;5.07;;;20.10;43.30;;;;;;5010798;28;20030;-37
2021/06/01 06:55:08;;;;;;;15.93;5.38;;;19.90;43.00;;;;;;5005777;28;21490;-38
2021/06/01 06:57:34;;;;;;;15.90;4.90;;;19.80;43.50;;;;;;5009101;28;20545;-37
2021/06/01 07:00:00;;;;;;;10.23;4.90;;;19.80;43.70;;;;;;5012112;28;20397;-37
2021/06/01 07:02:28;;;;;;;10.15;4.80;;;19.80;43.10;;;;;;5010278;28;20034;-37
2021/06/01 07:04:53;;;;;;;11.27;4.00;;;19.70;43.10;;;;;;5011544;28;20022;-37
2021/06/01 07:07:19;;;;;;;7.22;3.97;;;19.80;42.90;;;;;;5011308;28;20037;-37
2021/06/01 07:09:45;;;;;;;9.65;4.15;;;19.80;42.90;;;;;;5010536;28;20042;-37
2021/06/01 07:12:12;;;;;;;7.07;4.07;;;19.80;42.60;;;;;;5018986;28;20468;-37
2021/06/01 07:14:50;;;;;;;14.38;3.60;;;19.80;42.70;;;;;;5012071;28;20034;-37
2021/06/01 07:17:17;;;;;;;8.32;3.80;;;19.90;42.30;;;;;;5011075;28;20037;-37
2021/06/01 07:19:47;;;;;;;9.30;3.53;;;20.00;42.40;;;;;;5009794;28;20608;-37
2021/06/01 07:22:12;;;;;;;8.43;3.03;;;19.90;42.00;;;;;;5010257;28;20092;-38
2021/06/01 07:24:38;;;;;;;5.38;3.08;;;20.00;42.10;;;;;;5010436;28;20030;-38
2021/06/01 07:27:04;;;;;;;4.95;2.42;;;20.00;42.00;;;;;;5010377;28;20117;-38
2021/06/01 07:29:31;;;;;;;4.72;2.17;;;20.10;41.80;;;;;;5010328;28;20443;-37
2021/06/01 07:31:57;;;;;;;3.30;2.10;;;20.10;41.00;;;;;;5010254;28;20443;-37
2021/06/01 07:34:22;;;;;;;4.45;2.03;;;20.20;40.90;;;;;;5010600;28;20068;-37
2021/06/01 07:36:48;;;;;;;3.53;2.13;;;20.30;40.30;;;;;;5010148;28;20038;-37
2021/06/01 07:39:14;;;;;;;5.10;1.70;;;20.40;40.00;;;;;;5010557;28;20030;-37
2021/06/01 07:41:39;;;;;;;5.43;1.90;;;20.30;39.50;;;;;;5011994;28;20444;-37
2021/06/01 07:44:05;;;;;;;4.18;2.15;;;20.40;39.40;;;;;;5010829;28;20522;-37
2021/06/01 07:46:32;;;;;;;3.25;1.75;;;20.50;39.30;;;;;;5014349;28;20490;-38
2021/06/01 07:48:59;;;;;;;2.50;1.65;;;20.40;39.00;;;;;;5014937;28;20531;-38
2021/06/01 07:51:28;;;;;;;3.72;1.85;;;20.50;39.20;;;;;;5014216;28;20058;-37
2021/06/01 07:53:56;;;;;;;2.53;1.92;;;20.50;39.30;;;;;;5014384;28;20030;-37
2021/06/01 07:56:22;;;;;;;2.65;1.42;;;20.60;39.30;;;;;;5012511;28;20026;-38
2021/06/01 07:58:48;;;;;;;3.42;1.67;;;20.60;38.60;;;;;;5013415;28;20113;-38
2021/06/01 08:01:14;;;;;;;2.67;1.50;;;20.60;38.60;;;;;;5013952;28;20026;-37
2021/06/01 08:03:40;;;;;;;2.75;1.77;;;20.60;38.60;;;;;;5013333;28;20030;-38
2021/06/01 08:06:06;;;;;;;3.88;1.67;;;20.60;38.50;;;;;;5013917;28;20116;-37
2021/06/01 08:08:31;;;;;;;2.47;1.80;;;20.50;38.00;;;;;;5006908;28;20029;-38
2021/06/01 08:10:57;;;;;;;2.40;1.52;;;20.50;37.80;;;;;;5013607;28;20022;-37
2021/06/01 08:13:24;;;;;;;4.07;1.60;;;20.60;38.20;;;;;;5012023;28;20113;-37
2021/06/01 08:15:51;;;;;;;3.17;1.67;;;20.60;37.60;;;;;;5013192;28;20025;-37
2021/06/01 08:18:19;;;;;;;2.92;1.58;;;20.70;37.00;;;;;;5013656;28;20034;-37
2021/06/01 08:23:31;;;;;;;6.18;2.15;;;20.70;37.50;;;;;;5002177;28;20045;-38
2021/06/01 08:25:57;;;;;;;4.40;1.77;;;20.70;36.40;;;;;;5013972;28;20026;-38
2021/06/01 08:28:23;;;;;;;2.58;1.60;;;20.70;36.50;;;;;;5013449;28;20410;-37
2021/06/01 08:30:49;;;;;;;1.60;1.35;;;20.60;36.30;;;;;;5013415;28;20092;-37
2021/06/01 08:33:14;;;;;;;3.88;1.50;;;20.60;36.00;;;;;;5013634;28;20038;-37
2021/06/01 08:35:40;;;;;;;7.13;2.00;;;20.70;36.20;;;;;;5012366;28;20034;-37
2021/06/01 08:38:06;;;;;;;3.40;1.65;;;20.70;36.30;;;;;;5014037;28;20040;-37
2021/06/01 08:40:32;;;;;;;1.92;1.40;;;20.70;36.30;;;;;;5012983;28;20133;-38
2021/06/01 08:42:58;;;;;;;3.10;1.88;;;20.80;36.30;;;;;;5013653;28;20021;-37
2021/06/01 08:45:23;;;;;;;1.98;1.50;;;20.80;36.10;;;;;;5013863;28;20391;-37
2021/06/01 08:47:49;;;;;;;2.75;2.25;;;20.70;35.00;;;;;;5010545;28;20061;-37
2021/06/01 08:50:16;;;;;;;3.35;1.35;;;20.80;34.90;;;;;;5014388;28;20055;-37
2021/06/01 08:52:42;;;;;;;4.70;1.70;;;20.80;34.80;;;;;;5013522;28;20105;-37
2021/06/01 08:55:11;;;;;;;3.33;1.48;;;20.80;35.00;;;;;;5018046;28;20104;-37
2021/06/01 08:57:39;;;;;;;4.30;1.60;;;20.80;34.30;;;;;;5009952;28;20058;-37
2021/06/01 09:00:06;;;;;;;2.90;1.13;;;20.80;34.30;;;;;;5013597;28;20033;-37
2021/06/01 09:02:32;;;;;;;1.98;1.55;;;20.80;34.50;;;;;;5013603;28;20471;-37
2021/06/01 09:05:02;;;;;;;1.65;1.40;;;20.90;34.80;;;;;;5013274;28;20034;-37
2021/06/01 09:07:34;;;;;;;3.00;1.58;;;21.00;34.70;;;;;;5007971;28;20053;-37
2021/06/01 09:10:20;;;;;;;2.13;1.45;;;20.90;34.20;;;;;;5013482;28;20026;-38
2021/06/01 09:21:40;;;;;;;8.27;1.60;;;21.00;34.50;;;;;;5012245;28;20538;-38
2021/06/01 09:24:07;;;;;;;11.07;1.88;;;21.00;34.60;;;;;;5013193;28;20063;-37
2021/06/01 09:27:00;;;;;;;3.92;1.40;;;21.00;34.90;;;;;;5018100;28;20049;-37
2021/06/01 09:29:28;;;;;;;6.15;1.50;;;21.10;34.40;;;;;;5012892;28;20034;-37
2021/06/01 09:32:16;;;;;;;3.05;1.50;;;21.00;34.00;;;;;;5012375;28;20022;-37
2021/06/01 09:34:43;;;;;;;3.22;1.27;;;21.00;33.90;;;;;;5012088;28;20022;-37
2021/06/01 09:37:15;;;;;;;1.40;1.30;;;21.10;34.80;;;;;;5012980;28;20040;-37
2021/06/01 09:39:41;;;;;;;3.35;1.35;;;21.10;34.30;;;;;;5011676;28;20037;-37
2021/06/01 09:42:27;;;;;;;3.28;1.50;;;21.10;34.20;;;;;;5012394;28;20034;-37
2021/06/01 09:45:06;;;;;;;5.00;1.48;;;21.10;33.80;;;;;;5011613;28;20101;-37
2021/06/01 09:47:52;;;;;;;4.18;1.50;;;21.10;34.00;;;;;;5012568;28;20372;-38
2021/06/01 09:50:28;;;;;;;1.70;1.35;;;21.10;34.20;;;;;;5011968;28;20539;-38
2021/06/01 09:52:57;;;;;;;3.75;1.55;;;21.10;33.80;;;;;;5026854;28;20025;-37
2021/06/01 09:55:37;;;;;;;7.38;1.70;;;21.10;33.80;;;;;;5018954;28;20033;-38
2021/06/01 09:58:08;;;;;;;2.58;1.23;;;21.10;34.00;;;;;;5006099;28;20113;-37
2021/06/01 10:00:36;;;;;;;2.33;1.20;;;21.20;34.40;;;;;;5011444;28;20124;-38
2021/06/01 10:03:04;;;;;;;1.50;1.20;;;21.30;34.40;;;;;;5012265;28;20087;-38
2021/06/01 10:05:36;;;;;;;2.50;1.40;;;21.30;34.20;;;;;;5011501;28;20030;-37
2021/06/01 10:08:18;;;;;;;9.97;2.00;;;21.30;34.40;;;;;;5012543;28;20109;-37
2021/06/01 10:10:56;;;;;;;2.22;1.55;;;21.30;34.70;;;;;;5010861;28;21962;-38
2021/06/01 10:13:24;;;;;;;3.25;1.23;;;21.40;34.70;;;;;;5012321;28;20475;-38
2021/06/01 10:15:54;;;;;;;1.77;1.48;;;21.40;34.90;;;;;;5011400;28;20034;-38
2021/06/01 10:18:20;;;;;;;2.00;1.30;;;21.40;34.80;;;;;;5010921;28;20080;-37
2021/06/01 10:20:48;;;;;;;2.78;1.60;;;21.40;34.70;;;;;;5010758;28;20046;-38
2021/06/01 10:23:26;;;;;;;4.35;1.63;;;21.40;35.10;;;;;;5012110;28;20022;-37
2021/06/01 10:25:52;;;;;;;2.70;1.52;;;21.40;34.90;;;;;;5015449;28;20700;-37
2021/06/01 10:28:25;;;;;;;3.78;1.88;;;21.40;34.50;;;;;;5011933;28;20387;-38
2021/06/01 10:30:53;;;;;;;4.00;1.40;;;21.40;34.40;;;;;;5020341;28;20037;-38
2021/06/01 10:33:20;;;;;;;3.50;1.45;;;21.40;34.40;;;;;;5025806;28;20029;-37
2021/06/01 10:35:57;;;;;;;2.55;1.58;;;21.50;35.00;;;;;;5021444;28;20042;-38
2021/06/01 10:44:34;;;;;;;3.17;1.90;;;21.70;37.10;;;;;;5010798;28;20041;-38
2021/06/01 10:52:21;;;;;;;1.92;1.50;;;21.80;37.50;;;;;;5011597;28;20509;-38
2021/06/01 10:54:49;;;;;;;3.42;1.45;;;21.70;37.60;;;;;;5011615;28;20029;-38
2021/06/01 10:57:16;;;;;;;3.22;1.48;;;21.70;37.60;;;;;;5011581;28;20030;-38
2021/06/01 11:02:22;;;;;;;3.35;1.35;;;21.70;37.70;;;;;;5010417;28;20033;-37
2021/06/01 11:05:09;;;;;;;3.25;1.42;;;21.70;37.20;;;;;;5010742;28;20028;-37
2021/06/01 11:07:54;;;;;;;2.03;1.30;;;21.80;37.50;;;;;;5025857;28;20026;-38
2021/06/01 11:10:42;;;;;;;6.70;1.83;;;21.80;37.50;;;;;;5011071;28;20034;-38
2021/06/01 11:13:17;;;;;;;3.03;1.58;;;21.70;37.40;;;;;;5008819;28;20030;-38
2021/06/01 11:15:53;;;;;;;2.03;1.15;;;21.80;37.60;;;;;;5012311;28;20119;-37
2021/06/01 11:18:33;;;;;;;2.42;1.60;;;21.80;37.70;;;;;;5015299;28;20034;-38
2021/06/01 11:21:07;;;;;;;1.95;1.40;;;21.80;37.70;;;;;;5014552;28;20038;-37
2021/06/01 11:35:19;;;;;;;3.65;1.20;;;21.80;37.60;;;;;;5014766;28;20112;-38
2021/06/01 11:43:10;;;;;;;3.90;1.88;;;21.80;37.30;;;;;;5014410;28;20025;-38
2021/06/01 11:51:15;;;;;;;1.80;1.20;;;21.80;37.00;;;;;;5014670;28;20082;-38
2021/06/01 11:54:03;;;;;;;1.70;1.27;;;21.90;37.10;;;;;;5014115;28;20489;-38
2021/06/01 11:57:21;;;;;;;1.67;1.30;;;21.90;36.90;;;;;;5022650;28;20034;-37
2021/06/01 12:18:41;;;;;;;1.48;1.08;;;21.90;37.50;;;;;;5014140;28;20121;-38
2021/06/01 12:21:10;;;;;;;1.73;1.30;;;21.90;36.80;;;;;;5014392;28;20467;-38
2021/06/01 12:23:45;;;;;;;1.38;1.20;;;21.90;36.50;;;;;;5014234;28;20041;-37
2021/06/01 12:32:11;;;;;;;;;;;21.90;36.50;;;;;;5009719;28;20160;-38
2021/06/01 13:08:53;;;;;;;1.90;1.52;;;22.20;36.70;;;;;;5012498;28;20031;-37
2021/06/01 13:14:11;;;;;;;2.42;1.58;;;22.20;36.60;;;;;;5012628;28;20041;-37
2021/06/01 13:19:36;;;;;;;1.35;1.10;;;22.10;36.70;;;;;;5013543;28;20076;-37
2021/06/01 13:40:08;;;;;;;3.03;1.60;;;22.20;35.80;;;;;;5011084;28;20057;-37
2021/06/01 13:48:37;;;;;;;2.22;1.48;;;22.30;35.50;;;;;;5010528;28;20104;-37
2021/06/01 13:56:11;;;;;;;1.95;1.30;;;22.30;35.20;;;;;;5015181;28;20492;-38
2021/06/01 14:09:47;;;;;;;1.92;1.13;;;22.40;35.20;;;;;;5004034;28;20110;-37
2021/06/01 14:31:29;;;;;;;1.77;1.23;;;22.50;34.80;;;;;;5011878;28;20125;-38
2021/06/01 15:31:50;;;;;;;1.85;1.30;;;22.80;35.50;;;;;;5011501;28;20034;-38
2021/06/01 15:48:44;;;;;;;2.42;1.08;;;22.90;35.40;;;;;;5010645;28;20029;-38
2021/06/01 16:23:50;;;;;;;2.47;1.42;;;23.10;35.20;;;;;;5008801;28;20041;-37
2021/06/01 16:31:59;;;;;;;4.72;1.33;;;23.20;36.60;;;;;;5009274;28;20049;-38
2021/06/01 17:04:47;;;;;;;6.93;2.33;;;23.40;36.30;;;;;;5013810;28;20558;-38
2021/06/01 17:13:08;;;;;;;8.73;2.42;;;23.40;36.20;;;;;;5012761;28;20080;-40
2021/06/01 17:15:35;;;;;;;8.20;3.38;;;23.40;36.70;;;;;;5006711;28;20587;-42
2021/06/01 17:24:09;;;;;;;12.48;5.82;;;23.60;37.90;;;;;;5013499;28;20379;-45
2021/06/01 17:34:59;;;;;;;11.20;5.57;;;23.80;37.40;;;;;;4993548;28;20121;-41
2021/06/01 17:37:25;;;;;;;11.73;4.70;;;23.80;36.60;;;;;;5012757;28;20030;-45
2021/06/01 17:39:52;;;;;;;11.13;4.68;;;23.60;36.80;;;;;;5012872;28;20034;-43
2021/06/01 17:42:20;;;;;;;6.95;3.88;;;23.50;36.90;;;;;;5012302;28;20037;-40
2021/06/01 17:44:48;;;;;;;6.35;3.13;;;23.50;36.90;;;;;;5012444;28;20030;-42
2021/06/01 17:47:21;;;;;;;5.93;3.08;;;23.40;36.70;;;;;;5011795;28;20035;-43
2021/06/01 17:49:50;;;;;;;3.70;2.55;;;23.40;36.80;;;;;;5012445;28;20057;-42
2021/06/01 17:52:22;;;;;;;5.18;2.35;;;23.30;36.80;;;;;;5012429;28;20033;-42
2021/06/01 17:54:51;;;;;;;5.13;2.35;;;23.30;36.80;;;;;;5014796;28;20022;-41
2021/06/01 17:57:19;;;;;;;2.80;1.98;;;23.40;36.60;;;;;;5015540;28;20057;-41
2021/06/01 17:59:46;;;;;;;2.80;1.98;;;23.30;36.50;;;;;;5012234;28;20038;-44
2021/06/01 18:02:14;;;;;;;3.28;1.95;;;23.30;36.70;;;;;;5011764;28;20622;-43
2021/06/01 18:04:44;;;;;;;7.47;2.00;;;23.20;36.60;;;;;;5012457;28;20034;-46
2021/06/01 18:07:15;;;;;;;5.72;2.00;;;23.20;36.50;;;;;;5004187;28;20040;-43
2021/06/01 18:10:13;;;;;;;8.30;2.58;;;23.10;36.70;;;;;;5012475;28;20036;-43
2021/06/01 19:21:31;;;;;;;2.38;1.48;;;22.60;38.30;;;;;;5010845;28;20072;-40
2021/06/01 19:43:24;;;;;;;4.25;1.55;;;22.60;39.00;;;;;;5015010;28;20049;-40
2021/06/01 19:51:08;;;;;;;6.55;1.70;;;22.60;39.30;;;;;;5011639;28;20072;-43
2021/06/01 19:53:37;;;;;;;3.50;1.63;;;22.50;39.30;;;;;;5006402;28;20483;-40
2021/06/01 19:56:07;;;;;;;3.15;1.77;;;22.50;39.30;;;;;;5012221;28;20025;-40
2021/06/01 19:58:36;;;;;;;2.67;1.70;;;22.50;39.40;;;;;;5011715;28;20030;-40
2021/06/01 20:01:05;;;;;;;2.42;1.73;;;22.50;39.50;;;;;;5009396;28;20029;-40
2021/06/01 20:03:32;;;;;;;3.05;1.63;;;22.50;39.50;;;;;;5005549;28;20022;-42
2021/06/01 20:05:59;;;;;;;2.83;1.83;;;22.50;39.50;;;;;;5006660;28;20085;-42
2021/06/01 20:08:26;;;;;;;2.97;1.70;;;22.50;39.50;;;;;;5004355;28;20095;-40
2021/06/01 20:10:54;;;;;;;5.43;1.98;;;22.40;39.50;;;;;;5007983;28;20029;-39
2021/06/01 20:13:21;;;;;;;6.70;2.13;;;22.40;39.60;;;;;;5004574;28;20029;-41
2021/06/01 20:15:47;;;;;;;6.55;2.00;;;22.40;39.70;;;;;;5003002;28;20037;-40
2021/06/01 20:18:13;;;;;;;2.00;1.30;;;22.40;39.70;;;;;;5008975;28;20543;-40
2021/06/01 20:20:44;;;;;;;2.00;1.55;;;22.40;39.70;;;;;;5012410;28;20080;-41
2021/06/01 20:23:11;;;;;;;3.28;1.98;;;22.40;39.80;;;;;;5002914;28;20029;-42
2021/06/01 20:25:38;;;;;;;2.67;2.05;;;22.40;39.80;;;;;;5013418;28;20018;-40
2021/06/01 20:28:07;;;;;;;3.40;1.70;;;22.40;39.80;;;;;;5004722;28;20762;-40
2021/06/01 20:30:38;;;;;;;3.53;1.77;;;22.40;39.80;;;;;;5008134;28;20475;-41
2021/06/01 20:33:12;;;;;;;2.28;1.80;;;22.40;39.90;;;;;;5008327;28;20034;-40
2021/06/01 20:35:42;;;;;;;3.55;1.90;;;22.30;39.80;;;;;;5006346;28;20037;-42
2021/06/01 20:38:09;;;;;;;2.90;1.80;;;22.30;39.90;;;;;;5001961;28;20109;-40
2021/06/01 20:40:35;;;;;;;4.25;2.22;;;22.30;39.90;;;;;;5006825;28;20037;-39
2021/06/01 20:43:03;;;;;;;2.40;1.58;;;22.30;39.90;;;;;;5001954;28;20053;-42
2021/06/01 20:45:31;;;;;;;3.30;1.65;;;22.40;40.00;;;;;;5005958;28;20022;-43
2021/06/01 20:48:03;;;;;;;3.05;1.88;;;22.30;40.00;;;;;;5000150;28;20030;-43
2021/06/01 20:50:31;;;;;;;2.35;1.60;;;22.30;40.00;;;;;;5006852;28;20048;-41
2021/06/01 20:52:57;;;;;;;3.67;2.05;;;22.30;40.00;;;;;;5004596;28;20125;-43